Time;durP1;ratioP1;P1;durP2;ratioP2;P2;SDS_P1;SDS_P2;PMS_P1;PMS_P2;Temp;Humidity;BMP_temperature;BMP_pressure;BME280_temperature;BME280_humidity;BME280_pressure;Samples;Min_cycle;Max_cycle;Signal;HPM_P1;HPM_P2
2022/03/14 00:00:16;;;;;;;17.75;12.60;;;8.30;99.90;;;;;;5054815;28;20041;-73
2022/03/14 00:02:42;;;;;;;18.95;13.23;;;8.20;99.90;;;;;;5052351;28;20373;-72
2022/03/14 00:05:10;;;;;;;22.80;13.68;;;8.20;99.90;;;;;;5054423;28;20045;-72
2022/03/14 00:07:36;;;;;;;22.35;12.88;;;8.20;99.90;;;;;;5035669;28;20071;-73
2022/03/14 00:10:06;;;;;;;19.30;12.70;;;8.20;99.90;;;;;;5054743;28;20045;-73
2022/03/14 00:12:32;;;;;;;18.52;12.30;;;8.20;99.90;;;;;;5066554;28;20413;-72
2022/03/14 00:14:59;;;;;;;23.45;14.15;;;8.20;99.90;;;;;;5039540;28;20160;-73
2022/03/14 00:17:26;;;;;;;22.13;13.35;;;8.20;99.90;;;;;;5054576;28;20040;-73
2022/03/14 00:19:53;;;;;;;18.85;12.68;;;8.20;99.90;;;;;;5019941;28;20048;-74
2022/03/14 00:22:20;;;;;;;20.73;13.38;;;8.30;99.90;;;;;;5037083;28;20049;-72
2022/03/14 00:24:46;;;;;;;19.38;12.70;;;8.30;99.90;;;;;;5054621;28;20141;-74
2022/03/14 00:27:12;;;;;;;17.30;12.30;;;8.30;99.90;;;;;;5054458;28;20096;-72
2022/03/14 00:29:39;;;;;;;17.25;11.93;;;8.30;99.90;;;;;;5054336;28;20128;-73
2022/03/14 00:32:05;;;;;;;16.83;11.70;;;8.40;99.90;;;;;;5037281;28;20052;-74
2022/03/14 00:34:31;;;;;;;16.63;11.98;;;8.50;99.90;;;;;;5054340;28;20132;-73
2022/03/14 00:36:56;;;;;;;18.67;12.10;;;8.50;99.90;;;;;;5053924;28;20127;-73
2022/03/14 00:39:22;;;;;;;23.40;11.95;;;8.50;99.90;;;;;;5054491;28;20521;-73
2022/03/14 00:41:48;;;;;;;16.02;10.73;;;8.50;99.90;;;;;;5063031;28;20086;-72
2022/03/14 00:44:15;;;;;;;16.08;10.45;;;8.60;99.90;;;;;;5078015;28;20044;-73
2022/03/14 00:46:41;;;;;;;15.48;10.63;;;8.50;99.90;;;;;;5078101;28;20472;-74
2022/03/14 00:49:07;;;;;;;16.52;10.18;;;8.60;99.90;;;;;;5077821;28;20052;-74
2022/03/14 00:51:35;;;;;;;13.63;9.88;;;8.50;99.90;;;;;;5078211;28;20083;-73
2022/03/14 00:54:01;;;;;;;16.02;10.60;;;8.50;99.90;;;;;;5077808;28;20045;-73
2022/03/14 00:56:28;;;;;;;18.75;10.70;;;8.50;99.90;;;;;;5077909;28;20372;-73
2022/03/14 00:58:54;;;;;;;16.08;9.57;;;8.50;99.90;;;;;;5077907;28;20076;-71
2022/03/14 01:01:21;;;;;;;17.98;10.57;;;8.50;99.90;;;;;;5060133;28;20052;-72
2022/03/14 01:03:46;;;;;;;17.38;11.15;;;8.50;99.90;;;;;;5077794;28;20041;-73
2022/03/14 01:06:12;;;;;;;15.60;10.60;;;8.60;99.90;;;;;;5060336;28;20059;-74
2022/03/14 01:08:38;;;;;;;15.02;10.85;;;8.60;99.90;;;;;;5060145;28;20088;-74
2022/03/14 01:11:04;;;;;;;14.55;9.88;;;8.70;99.90;;;;;;5074055;28;20037;-73
2022/03/14 01:13:29;;;;;;;16.90;9.95;;;8.70;99.90;;;;;;5063878;28;20051;-74
2022/03/14 01:15:55;;;;;;;14.02;10.13;;;8.70;99.90;;;;;;5077517;28;20134;-75
2022/03/14 01:18:20;;;;;;;14.68;10.43;;;8.70;99.90;;;;;;5077156;28;20063;-73
2022/03/14 01:20:46;;;;;;;14.43;10.13;;;8.80;99.90;;;;;;5077010;28;20445;-75
2022/03/14 01:23:12;;;;;;;18.27;10.75;;;8.80;99.90;;;;;;5077465;28;20056;-74
2022/03/14 01:25:38;;;;;;;13.13;9.93;;;8.80;99.90;;;;;;5077368;28;20044;-73
2022/03/14 01:28:05;;;;;;;16.27;10.73;;;8.90;99.90;;;;;;5077336;28;20364;-72
2022/03/14 01:30:30;;;;;;;14.13;9.82;;;8.90;99.90;;;;;;5077465;28;20130;-73
2022/03/14 01:32:57;;;;;;;13.68;9.85;;;8.90;99.90;;;;;;5042869;28;20048;-72
2022/03/14 01:35:23;;;;;;;12.57;9.73;;;8.90;99.90;;;;;;5077277;28;20366;-75
2022/03/14 01:37:49;;;;;;;14.30;9.40;;;9.00;99.90;;;;;;5077195;28;20045;-72
2022/03/14 01:40:18;;;;;;;12.85;8.93;;;8.80;99.90;;;;;;5076967;28;20044;-71
2022/03/14 01:42:44;;;;;;;16.10;10.07;;;8.80;99.90;;;;;;5059840;28;20055;-74
2022/03/14 01:45:10;;;;;;;13.23;9.52;;;8.70;99.90;;;;;;5039191;28;20060;-72
2022/03/14 01:47:38;;;;;;;12.70;9.20;;;8.80;99.90;;;;;;5057039;28;20052;-72
2022/03/14 01:50:05;;;;;;;12.45;9.02;;;8.70;99.90;;;;;;5056525;28;20461;-73
2022/03/14 01:52:31;;;;;;;14.05;8.57;;;8.80;99.90;;;;;;5056444;28;20059;-73
2022/03/14 01:54:57;;;;;;;13.63;8.20;;;8.80;99.90;;;;;;5057051;28;20049;-71
2022/03/14 01:57:22;;;;;;;12.95;8.80;;;8.80;99.90;;;;;;5039164;28;20049;-72
2022/03/14 01:59:48;;;;;;;11.68;8.65;;;8.90;99.90;;;;;;5056737;28;20450;-72
2022/03/14 02:02:14;;;;;;;11.25;8.10;;;8.90;99.90;;;;;;5056183;28;20128;-73
2022/03/14 02:04:39;;;;;;;12.13;8.57;;;8.90;99.90;;;;;;5056527;28;20049;-71
2022/03/14 02:07:05;;;;;;;11.68;8.85;;;8.90;99.90;;;;;;5056448;28;20045;-72
2022/03/14 02:09:31;;;;;;;11.05;8.38;;;8.90;99.90;;;;;;5056332;28;20115;-74
2022/03/14 02:11:57;;;;;;;12.57;8.10;;;8.90;99.90;;;;;;5050999;28;20051;-74
2022/03/14 02:14:23;;;;;;;11.60;8.82;;;8.90;99.90;;;;;;5058721;28;20365;-73
2022/03/14 02:16:50;;;;;;;10.95;8.23;;;8.90;99.90;;;;;;5058464;28;20055;-72
2022/03/14 02:19:15;;;;;;;11.07;8.02;;;8.90;99.90;;;;;;5076232;28;20067;-72
2022/03/14 02:21:41;;;;;;;10.52;7.90;;;8.90;99.90;;;;;;5076567;28;20441;-74
2022/03/14 02:24:07;;;;;;;11.32;8.43;;;9.00;99.90;;;;;;5058791;28;20545;-74
2022/03/14 02:26:39;;;;;;;11.25;8.27;;;8.90;99.90;;;;;;5058321;28;20041;-72
2022/03/14 02:29:06;;;;;;;11.57;7.50;;;8.90;99.90;;;;;;5075518;28;20044;-73
2022/03/14 02:31:31;;;;;;;12.00;8.48;;;8.90;99.90;;;;;;5058912;28;20445;-73
2022/03/14 02:33:57;;;;;;;11.10;7.95;;;8.80;99.90;;;;;;5076156;28;20036;-71
2022/03/14 02:36:23;;;;;;;11.90;8.10;;;8.90;99.90;;;;;;5058190;28;20036;-73
2022/03/14 02:38:48;;;;;;;10.57;7.68;;;8.80;99.90;;;;;;5075909;28;20364;-72
2022/03/14 02:41:14;;;;;;;10.55;7.47;;;8.80;99.90;;;;;;5069163;28;20029;-74
2022/03/14 02:43:39;;;;;;;11.93;7.90;;;8.80;99.90;;;;;;5055634;28;20041;-72
2022/03/14 02:46:05;;;;;;;12.35;7.78;;;8.80;99.90;;;;;;5055489;28;20063;-73
2022/03/14 02:48:30;;;;;;;10.65;7.28;;;8.80;99.90;;;;;;5055910;28;20120;-72
2022/03/14 02:50:56;;;;;;;13.75;7.45;;;8.80;99.90;;;;;;5055591;28;20377;-73
2022/03/14 02:53:22;;;;;;;10.43;7.50;;;8.70;99.90;;;;;;5038173;28;20045;-72
2022/03/14 02:55:48;;;;;;;10.23;7.25;;;8.70;99.90;;;;;;5055841;28;20434;-73
2022/03/14 02:58:14;;;;;;;10.48;7.45;;;8.70;99.90;;;;;;5037879;28;20056;-72
2022/03/14 03:00:39;;;;;;;11.20;6.80;;;8.90;99.90;;;;;;5038013;28;20049;-73
2022/03/14 03:03:06;;;;;;;9.32;6.95;;;8.80;99.90;;;;;;5034868;28;20052;-72
2022/03/14 03:05:34;;;;;;;10.45;7.40;;;8.80;99.90;;;;;;5055262;28;20057;-73
2022/03/14 03:08:01;;;;;;;11.05;7.55;;;8.80;99.90;;;;;;5056232;28;20037;-73
2022/03/14 03:10:28;;;;;;;9.30;6.72;;;8.70;99.90;;;;;;5037803;28;20097;-74
2022/03/14 03:12:54;;;;;;;11.10;7.20;;;8.70;99.90;;;;;;5037311;28;20045;-73
2022/03/14 03:15:19;;;;;;;9.52;6.53;;;8.70;99.90;;;;;;5021339;28;20532;-74
2022/03/14 03:17:45;;;;;;;8.68;6.72;;;8.80;99.90;;;;;;5055459;28;20381;-73
2022/03/14 03:20:12;;;;;;;8.07;6.13;;;8.70;99.90;;;;;;5055036;28;20060;-72
2022/03/14 03:22:39;;;;;;;8.20;6.68;;;8.70;99.90;;;;;;5037680;28;20128;-74
2022/03/14 03:25:06;;;;;;;8.98;6.53;;;8.80;99.90;;;;;;5055259;28;20353;-73
2022/03/14 03:27:32;;;;;;;10.48;6.35;;;8.80;99.90;;;;;;5037631;28;20045;-73
2022/03/14 03:29:58;;;;;;;10.80;6.63;;;8.80;99.90;;;;;;5037918;28;20195;-73
2022/03/14 03:32:24;;;;;;;8.35;6.35;;;8.90;99.90;;;;;;5054936;28;20049;-73
2022/03/14 03:34:50;;;;;;;10.43;6.13;;;8.90;99.90;;;;;;5054716;28;20183;-72
2022/03/14 03:37:16;;;;;;;8.30;6.07;;;8.90;99.90;;;;;;5037294;28;20041;-73
2022/03/14 03:39:41;;;;;;;7.85;5.95;;;8.90;99.90;;;;;;5052204;28;20392;-72
2022/03/14 03:42:07;;;;;;;7.85;5.78;;;8.90;99.90;;;;;;5054462;28;20076;-73
2022/03/14 03:44:33;;;;;;;8.25;6.00;;;8.90;99.90;;;;;;5054537;28;20037;-73
2022/03/14 03:46:58;;;;;;;11.02;6.05;;;8.90;99.90;;;;;;5037333;28;20046;-73
2022/03/14 03:49:24;;;;;;;8.70;6.22;;;8.90;99.90;;;;;;5054867;28;20099;-73
2022/03/14 03:51:49;;;;;;;8.13;5.57;;;8.90;99.90;;;;;;5055026;28;20124;-74
2022/03/14 03:54:15;;;;;;;9.73;5.88;;;8.90;99.90;;;;;;5037402;28;20323;-72
2022/03/14 03:56:41;;;;;;;7.63;5.50;;;8.90;99.90;;;;;;5053244;28;20053;-72
2022/03/14 03:59:07;;;;;;;9.82;5.40;;;8.90;99.90;;;;;;5053598;28;20420;-72
2022/03/14 04:01:32;;;;;;;7.22;5.13;;;8.90;99.90;;;;;;5054629;28;20053;-72
2022/03/14 04:03:59;;;;;;;8.27;5.40;;;8.90;99.90;;;;;;5037298;28;20083;-73
2022/03/14 04:06:28;;;;;;;7.95;5.55;;;8.90;99.90;;;;;;5037231;28;20381;-74
2022/03/14 04:08:55;;;;;;;8.07;5.47;;;8.90;99.90;;;;;;5037254;28;20408;-73
2022/03/14 04:11:21;;;;;;;6.57;5.03;;;8.90;99.90;;;;;;5073090;28;20063;-73
2022/03/14 04:13:48;;;;;;;7.45;5.57;;;8.80;99.90;;;;;;5056956;28;20036;-73
2022/03/14 04:16:17;;;;;;;7.47;5.22;;;8.80;99.90;;;;;;5076191;28;20094;-72
2022/03/14 04:18:43;;;;;;;8.20;4.90;;;8.80;99.90;;;;;;5060943;28;20419;-73
2022/03/14 04:21:09;;;;;;;6.50;4.65;;;8.80;99.90;;;;;;5060382;28;20080;-74
2022/03/14 04:23:34;;;;;;;6.22;4.80;;;8.70;99.90;;;;;;5078513;28;20134;-73
2022/03/14 04:26:00;;;;;;;6.90;4.70;;;8.70;99.90;;;;;;5078250;28;20044;-73
2022/03/14 04:28:26;;;;;;;6.55;4.97;;;8.70;99.90;;;;;;5078608;28;20106;-74
2022/03/14 04:30:52;;;;;;;6.60;4.45;;;8.80;99.90;;;;;;5057501;28;20066;-72
2022/03/14 04:33:17;;;;;;;7.75;5.10;;;8.70;99.90;;;;;;5061051;28;20123;-73
2022/03/14 04:35:43;;;;;;;8.25;4.72;;;8.70;99.90;;;;;;5060227;28;20055;-72
2022/03/14 04:38:08;;;;;;;7.15;4.90;;;8.70;99.90;;;;;;5070414;28;20055;-72
2022/03/14 04:40:35;;;;;;;5.85;4.32;;;8.70;99.90;;;;;;5058187;28;20049;-74
2022/03/14 04:43:08;;;;;;;7.80;4.40;;;8.70;99.90;;;;;;5058404;28;20053;-72
2022/03/14 04:45:36;;;;;;;5.43;4.18;;;8.70;99.90;;;;;;5057765;28;20465;-71
2022/03/14 04:48:05;;;;;;;6.05;4.20;;;8.80;99.90;;;;;;5057982;28;20048;-72
2022/03/14 04:50:31;;;;;;;5.88;4.32;;;8.80;99.90;;;;;;5063269;28;20111;-74
2022/03/14 04:52:56;;;;;;;5.63;3.92;;;8.80;99.90;;;;;;5078103;28;20072;-73
2022/03/14 04:55:22;;;;;;;6.18;3.92;;;8.80;99.90;;;;;;5043415;28;20447;-73
2022/03/14 04:57:48;;;;;;;5.38;3.80;;;8.80;99.90;;;;;;5077520;28;20032;-72
2022/03/14 05:00:14;;;;;;;4.90;3.50;;;8.80;99.90;;;;;;5060444;28;20052;-73
2022/03/14 05:02:40;;;;;;;4.80;3.70;;;8.80;99.90;;;;;;5077755;28;20467;-72
2022/03/14 05:07:38;;;;;;;5.35;3.70;;;8.90;99.90;;;;;;5015412;28;20105;-73
2022/03/14 05:10:06;;;;;;;6.30;3.53;;;8.90;99.90;;;;;;5000386;28;20057;-72
2022/03/14 05:12:32;;;;;;;5.30;3.58;;;8.90;99.90;;;;;;5015824;28;20466;-71
2022/03/14 05:14:58;;;;;;;5.10;3.65;;;8.90;99.90;;;;;;5017819;28;20100;-73
2022/03/14 05:17:25;;;;;;;7.43;4.15;;;8.80;99.90;;;;;;5019173;28;20446;-71
2022/03/14 05:19:50;;;;;;;5.35;3.70;;;8.90;99.90;;;;;;5005091;28;20041;-71
2022/03/14 05:22:16;;;;;;;5.68;3.90;;;8.90;99.90;;;;;;4997647;28;20038;-72
2022/03/14 05:24:42;;;;;;;5.03;3.67;;;8.90;99.90;;;;;;5017550;28;20056;-72
2022/03/14 05:27:08;;;;;;;5.05;3.80;;;8.90;99.90;;;;;;4998843;28;20038;-72
2022/03/14 05:29:34;;;;;;;5.65;4.13;;;8.90;99.90;;;;;;5004835;28;20082;-72
2022/03/14 05:31:59;;;;;;;5.28;4.05;;;8.90;99.90;;;;;;5017256;28;20097;-72
2022/03/14 05:34:25;;;;;;;6.13;3.90;;;8.90;99.90;;;;;;5017101;28;20085;-71
2022/03/14 05:36:50;;;;;;;4.93;3.70;;;8.90;99.90;;;;;;5017262;28;20042;-73
2022/03/14 05:39:16;;;;;;;7.20;3.63;;;8.90;99.90;;;;;;4999854;28;20123;-72
2022/03/14 05:41:42;;;;;;;6.72;3.80;;;8.90;99.90;;;;;;5017575;28;20045;-72
2022/03/14 05:44:08;;;;;;;5.10;3.90;;;8.90;99.90;;;;;;5017520;28;20077;-73
2022/03/14 05:46:33;;;;;;;5.53;4.07;;;8.90;99.90;;;;;;5017467;28;20125;-73
2022/03/14 05:48:59;;;;;;;5.93;4.18;;;8.90;99.90;;;;;;4999757;28;20125;-73
2022/03/14 05:51:25;;;;;;;5.97;4.28;;;8.90;99.90;;;;;;5017055;28;20065;-71
2022/03/14 05:53:50;;;;;;;6.43;3.60;;;8.90;99.90;;;;;;4995213;28;20049;-72
2022/03/14 05:56:16;;;;;;;5.00;3.92;;;8.90;99.90;;;;;;5016948;28;20042;-71
2022/03/14 05:58:41;;;;;;;5.95;4.35;;;8.90;99.90;;;;;;5017002;28;20042;-73
2022/03/14 06:01:07;;;;;;;5.97;4.53;;;8.90;99.90;;;;;;5014509;28;20117;-70
2022/03/14 06:03:32;;;;;;;6.28;4.60;;;8.90;99.90;;;;;;5014659;28;20077;-69
2022/03/14 06:05:58;;;;;;;5.95;4.10;;;8.90;99.90;;;;;;4998746;28;20390;-69
2022/03/14 06:08:23;;;;;;;5.40;3.90;;;8.90;99.90;;;;;;4999285;28;20486;-69
2022/03/14 06:10:49;;;;;;;5.85;4.15;;;8.90;99.90;;;;;;4982684;28;20088;-69
2022/03/14 06:13:15;;;;;;;6.07;4.55;;;8.90;99.90;;;;;;4995310;28;20411;-72
2022/03/14 06:15:42;;;;;;;5.78;4.10;;;8.90;99.90;;;;;;4996873;28;20050;-71
2022/03/14 06:18:08;;;;;;;5.53;4.00;;;8.90;99.90;;;;;;4996440;28;20046;-70
2022/03/14 06:20:34;;;;;;;6.28;4.68;;;8.90;99.90;;;;;;4998887;28;20212;-71
2022/03/14 06:23:00;;;;;;;5.47;4.07;;;8.90;99.90;;;;;;5016229;28;20120;-70
2022/03/14 06:25:25;;;;;;;6.47;4.63;;;8.90;99.90;;;;;;5016288;28;20137;-71
2022/03/14 06:27:51;;;;;;;7.30;4.75;;;8.90;99.90;;;;;;5016301;28;20445;-69
2022/03/14 06:30:17;;;;;;;6.18;4.40;;;8.90;99.90;;;;;;5016177;28;20416;-70
2022/03/14 06:32:43;;;;;;;5.57;4.20;;;8.90;99.90;;;;;;4982801;28;20064;-69
2022/03/14 06:35:12;;;;;;;7.63;5.30;;;8.90;99.90;;;;;;5016131;28;20037;-70
2022/03/14 06:37:38;;;;;;;7.00;5.50;;;8.90;99.90;;;;;;5014294;28;20461;-71
2022/03/14 06:40:04;;;;;;;5.57;4.40;;;8.90;99.90;;;;;;5015177;28;20052;-69
2022/03/14 06:42:30;;;;;;;5.90;4.78;;;8.90;99.90;;;;;;5015632;28;20150;-70
2022/03/14 06:45:02;;;;;;;8.23;5.20;;;8.90;99.90;;;;;;5016214;28;20145;-70
2022/03/14 06:47:28;;;;;;;8.50;5.10;;;8.90;99.90;;;;;;4998669;28;20055;-70
2022/03/14 06:49:54;;;;;;;7.57;5.35;;;8.90;99.90;;;;;;5015778;28;20041;-71
2022/03/14 06:52:19;;;;;;;7.65;5.40;;;8.80;99.90;;;;;;5015928;28;20065;-71
2022/03/14 06:54:45;;;;;;;7.15;5.35;;;8.90;99.90;;;;;;5014365;28;20057;-71
2022/03/14 06:57:11;;;;;;;6.53;5.22;;;8.90;99.90;;;;;;5015208;28;20046;-70
2022/03/14 06:59:37;;;;;;;6.72;5.13;;;8.80;99.90;;;;;;4997342;28;20145;-70
2022/03/14 07:02:04;;;;;;;7.10;5.25;;;8.80;99.90;;;;;;4964025;28;20053;-70
2022/03/14 07:04:29;;;;;;;7.40;5.40;;;8.90;99.90;;;;;;5015331;28;20045;-70
2022/03/14 07:06:55;;;;;;;7.72;5.80;;;8.90;99.90;;;;;;5015030;28;20060;-70
2022/03/14 07:09:22;;;;;;;8.32;6.00;;;8.90;99.90;;;;;;5015050;28;20046;-71
2022/03/14 07:11:51;;;;;;;7.95;5.95;;;8.80;99.90;;;;;;5014129;28;20045;-72
2022/03/14 07:14:19;;;;;;;7.45;5.95;;;8.90;99.90;;;;;;5014878;28;20139;-69
2022/03/14 07:16:44;;;;;;;8.30;6.28;;;8.90;99.90;;;;;;5014831;28;20085;-69
2022/03/14 07:19:10;;;;;;;7.95;5.78;;;8.90;99.90;;;;;;4996802;28;20065;-71
2022/03/14 07:21:36;;;;;;;9.38;6.15;;;8.90;99.90;;;;;;4994445;28;20062;-70
2022/03/14 07:24:02;;;;;;;6.95;5.70;;;8.90;99.90;;;;;;4995216;28;20113;-72
2022/03/14 07:26:27;;;;;;;9.43;6.18;;;8.90;99.90;;;;;;4995483;28;20050;-71
2022/03/14 07:28:53;;;;;;;8.68;6.20;;;8.90;99.90;;;;;;4995682;28;20436;-70
2022/03/14 07:31:20;;;;;;;10.35;6.00;;;8.90;99.90;;;;;;4995645;28;20054;-70
2022/03/14 07:33:47;;;;;;;8.32;6.35;;;8.90;99.90;;;;;;4995117;28;20423;-69
2022/03/14 07:36:13;;;;;;;7.95;5.85;;;9.00;99.90;;;;;;4994778;28;20039;-71
2022/03/14 07:38:39;;;;;;;8.10;6.00;;;9.00;99.90;;;;;;4991104;28;20125;-70
2022/03/14 07:41:04;;;;;;;8.18;6.50;;;9.00;99.90;;;;;;4999021;28;20121;-73
2022/03/14 07:43:30;;;;;;;10.15;7.10;;;9.00;99.90;;;;;;5014382;28;20037;-70
2022/03/14 07:45:56;;;;;;;9.02;6.68;;;9.10;99.90;;;;;;5014613;28;20073;-70
2022/03/14 07:48:22;;;;;;;9.00;6.57;;;9.10;99.90;;;;;;5014468;28;20119;-70
2022/03/14 07:50:49;;;;;;;8.07;6.40;;;9.10;99.90;;;;;;4997450;28;20042;-70
2022/03/14 07:53:14;;;;;;;8.40;6.22;;;9.10;99.90;;;;;;5014264;28;20105;-70
2022/03/14 07:55:40;;;;;;;9.00;5.88;;;9.10;99.90;;;;;;5013840;28;20098;-71
2022/03/14 07:58:05;;;;;;;7.32;5.90;;;9.10;99.90;;;;;;5014672;28;20045;-70
2022/03/14 08:00:31;;;;;;;7.90;6.18;;;9.10;99.90;;;;;;4997263;28;20132;-73
2022/03/14 08:02:57;;;;;;;8.32;6.68;;;9.10;99.90;;;;;;5014397;28;20038;-69
2022/03/14 08:05:26;;;;;;;8.93;6.60;;;9.10;99.90;;;;;;5014564;28;20046;-70
2022/03/14 08:07:53;;;;;;;9.00;6.95;;;9.10;99.90;;;;;;5014565;28;20069;-70
2022/03/14 08:10:19;;;;;;;12.30;6.72;;;9.10;99.90;;;;;;5014660;28;20042;-71
2022/03/14 08:12:53;;;;;;;9.93;7.13;;;9.10;99.90;;;;;;4996817;28;20046;-71
2022/03/14 08:15:19;;;;;;;;;;;9.10;99.90;;;;;;5014456;28;20049;-69
2022/03/14 08:17:44;;;;;;;10.25;7.03;;;9.20;99.90;;;;;;5014187;28;20326;-70
2022/03/14 08:20:10;;;;;;;9.48;7.38;;;9.20;99.90;;;;;;4997142;28;20050;-70
2022/03/14 08:22:36;;;;;;;10.48;7.25;;;9.10;99.90;;;;;;5014789;28;20053;-69
2022/03/14 08:25:01;;;;;;;9.02;6.75;;;9.20;99.90;;;;;;4997552;28;20454;-70
2022/03/14 08:27:27;;;;;;;10.00;7.25;;;9.30;99.90;;;;;;5013734;28;20077;-71
2022/03/14 08:29:53;;;;;;;10.73;8.38;;;9.30;99.90;;;;;;4997320;28;20068;-70
2022/03/14 08:32:19;;;;;;;8.02;6.55;;;9.30;99.90;;;;;;5013833;28;20050;-71
2022/03/14 08:34:45;;;;;;;10.18;7.90;;;9.40;99.90;;;;;;4993085;28;20462;-71
2022/03/14 08:37:11;;;;;;;10.38;7.80;;;9.40;99.90;;;;;;4993680;28;20062;-70
2022/03/14 08:39:36;;;;;;;8.82;7.20;;;9.50;99.90;;;;;;4994685;28;20086;-71
2022/03/14 08:42:04;;;;;;;9.15;6.93;;;9.50;99.90;;;;;;5006423;28;20363;-71
2022/03/14 08:44:29;;;;;;;8.93;6.93;;;9.50;99.90;;;;;;4997223;28;20125;-71
2022/03/14 08:46:55;;;;;;;9.90;7.75;;;9.60;99.90;;;;;;5014620;28;20058;-71
2022/03/14 08:49:20;;;;;;;8.73;6.57;;;9.60;99.90;;;;;;5013694;28;20061;-72
2022/03/14 08:51:46;;;;;;;10.32;7.35;;;9.60;99.90;;;;;;5013479;28;20042;-72
2022/03/14 08:54:11;;;;;;;8.52;6.63;;;9.70;99.90;;;;;;5014101;28;20060;-71
2022/03/14 08:56:37;;;;;;;9.40;7.18;;;9.70;99.90;;;;;;5014246;28;20053;-71
2022/03/14 08:59:04;;;;;;;9.73;7.60;;;9.70;99.90;;;;;;4996950;28;20093;-71
2022/03/14 09:01:30;;;;;;;10.07;7.97;;;9.70;99.90;;;;;;5012141;28;20046;-72
2022/03/14 09:03:56;;;;;;;10.15;8.05;;;9.70;99.90;;;;;;4999167;28;20045;-71
2022/03/14 09:06:22;;;;;;;10.55;7.85;;;9.70;99.90;;;;;;5016613;28;20085;-72
2022/03/14 09:08:47;;;;;;;8.23;6.32;;;9.80;99.90;;;;;;5017327;28;20057;-72
2022/03/14 09:11:13;;;;;;;10.05;8.00;;;9.80;99.90;;;;;;4997849;28;20042;-72
2022/03/14 09:13:39;;;;;;;10.60;8.20;;;9.80;99.90;;;;;;5004394;28;20069;-73
2022/03/14 09:16:07;;;;;;;11.25;8.57;;;9.80;99.90;;;;;;5019975;28;20042;-73
2022/03/14 09:18:33;;;;;;;10.20;7.38;;;9.90;99.90;;;;;;5013144;28;20060;-71
2022/03/14 09:20:58;;;;;;;14.43;8.65;;;9.80;99.90;;;;;;5015241;28;20061;-71
2022/03/14 09:23:27;;;;;;;12.88;9.05;;;9.90;99.90;;;;;;5017010;28;20088;-71
2022/03/14 09:25:52;;;;;;;11.70;9.32;;;9.90;99.90;;;;;;5016612;28;20065;-74
2022/03/14 09:28:20;;;;;;;10.48;8.60;;;9.90;99.90;;;;;;5015979;28;20050;-73
2022/03/14 09:30:45;;;;;;;10.60;7.55;;;9.90;99.90;;;;;;5016712;28;20052;-72
2022/03/14 09:33:11;;;;;;;10.23;8.35;;;9.90;99.90;;;;;;5015843;28;20046;-71
2022/03/14 09:35:37;;;;;;;10.65;8.63;;;10.00;99.90;;;;;;5016087;28;20081;-72
2022/03/14 09:38:03;;;;;;;10.95;9.10;;;10.00;99.90;;;;;;4997852;28;20053;-70
2022/03/14 09:40:31;;;;;;;10.02;8.25;;;10.00;99.90;;;;;;5016214;28;20046;-70
2022/03/14 09:42:59;;;;;;;11.63;9.32;;;10.10;99.90;;;;;;4999176;28;20045;-71
2022/03/14 09:45:26;;;;;;;11.43;9.10;;;10.10;99.90;;;;;;5016134;28;20050;-70
2022/03/14 09:47:58;;;;;;;11.88;9.70;;;10.10;99.90;;;;;;4999074;28;20103;-70
2022/03/14 09:50:31;;;;;;;10.43;8.48;;;10.10;99.90;;;;;;4997973;28;20045;-71
2022/03/14 09:52:58;;;;;;;13.15;9.85;;;10.10;99.90;;;;;;5015824;28;20049;-71
2022/03/14 09:55:24;;;;;;;9.80;8.63;;;10.10;99.90;;;;;;4999139;28;20123;-71
2022/03/14 09:57:50;;;;;;;12.00;9.82;;;10.10;99.90;;;;;;5015596;28;20045;-72
2022/03/14 10:00:16;;;;;;;13.35;10.32;;;10.10;99.90;;;;;;5015894;28;20046;-70
2022/03/14 10:02:43;;;;;;;11.68;9.95;;;10.10;99.90;;;;;;5015860;28;20038;-72
2022/03/14 10:05:11;;;;;;;12.60;10.05;;;10.10;99.90;;;;;;5012343;28;20042;-71
2022/03/14 10:07:39;;;;;;;15.50;10.93;;;10.10;99.90;;;;;;5015836;28;20057;-73
2022/03/14 10:10:05;;;;;;;21.20;14.35;;;10.10;99.90;;;;;;4997783;28;20468;-73
2022/03/14 10:12:32;;;;;;;18.45;13.45;;;10.00;99.90;;;;;;5015561;28;20128;-72
2022/03/14 10:15:03;;;;;;;18.42;14.55;;;9.90;99.90;;;;;;5014340;28;20061;-71
2022/03/14 10:17:29;;;;;;;22.00;15.93;;;9.90;99.90;;;;;;5015243;28;20093;-70
2022/03/14 10:19:58;;;;;;;22.92;16.35;;;9.80;99.90;;;;;;5015746;28;20418;-71
2022/03/14 10:22:33;;;;;;;20.85;14.85;;;9.80;99.90;;;;;;4997652;28;20048;-72
2022/03/14 10:25:10;;;;;;;20.90;14.95;;;9.70;99.90;;;;;;5015830;28;20108;-72
2022/03/14 10:27:38;;;;;;;20.85;13.90;;;9.70;99.90;;;;;;5013022;28;20061;-71
2022/03/14 10:30:20;;;;;;;18.42;10.65;;;9.60;99.90;;;;;;4998108;28;20537;-70
2022/03/14 10:32:48;;;;;;;18.60;10.02;;;9.60;99.90;;;;;;5014985;28;20058;-72
2022/03/14 10:35:20;;;;;;;19.38;10.25;;;9.60;99.90;;;;;;5015118;28;20100;-71
2022/03/14 10:37:58;;;;;;;16.60;9.27;;;9.60;99.90;;;;;;4997834;28;20037;-71
2022/03/14 10:40:40;;;;;;;19.35;10.13;;;9.50;99.90;;;;;;5014042;28;20056;-72
2022/03/14 10:43:08;;;;;;;18.42;10.32;;;9.60;99.90;;;;;;5015072;28;20045;-70
2022/03/14 10:45:34;;;;;;;25.60;10.48;;;9.60;99.90;;;;;;4997858;28;20383;-72
2022/03/14 10:48:02;;;;;;;21.33;10.98;;;9.60;99.90;;;;;;5014733;28;20056;-72
2022/03/14 10:50:35;;;;;;;19.90;10.90;;;9.70;99.90;;;;;;4998128;28;20065;-73
2022/03/14 10:53:02;;;;;;;19.98;11.57;;;9.70;99.90;;;;;;5014824;28;20108;-71
2022/03/14 10:55:35;;;;;;;19.52;12.02;;;9.70;99.90;;;;;;5015043;28;20100;-71
2022/03/14 10:58:23;;;;;;;23.42;12.73;;;9.80;99.90;;;;;;5014429;28;20050;-73
2022/03/14 11:01:09;;;;;;;19.20;12.07;;;9.90;99.90;;;;;;5018811;28;20061;-72
2022/03/14 11:03:39;;;;;;;22.98;12.70;;;10.00;99.90;;;;;;5013535;28;20048;-72
2022/03/14 11:06:13;;;;;;;22.67;13.18;;;10.00;99.90;;;;;;5015287;28;20050;-71
2022/03/14 11:08:42;;;;;;;21.27;12.82;;;10.10;99.90;;;;;;5014375;28;20049;-71
2022/03/14 11:11:14;;;;;;;20.92;12.98;;;10.20;99.90;;;;;;4997711;28;20050;-72
2022/03/14 11:13:43;;;;;;;22.67;13.77;;;10.30;99.90;;;;;;5014419;28;20053;-72
2022/03/14 11:16:26;;;;;;;23.58;13.77;;;10.30;99.90;;;;;;5014938;28;20573;-71
2022/03/14 11:18:53;;;;;;;19.53;11.87;;;10.40;99.90;;;;;;4995890;28;20045;-71
2022/03/14 11:21:24;;;;;;;25.55;13.40;;;10.50;99.90;;;;;;5014262;28;20428;-73
2022/03/14 11:23:51;;;;;;;19.80;12.90;;;10.50;99.90;;;;;;5014087;28;20049;-70
2022/03/14 11:26:26;;;;;;;24.88;13.82;;;10.60;99.90;;;;;;5017389;28;20061;-72
2022/03/14 11:28:54;;;;;;;20.45;13.10;;;10.60;99.90;;;;;;5013909;28;20108;-71
2022/03/14 11:31:22;;;;;;;20.25;12.68;;;10.70;99.90;;;;;;5014722;28;20057;-72
2022/03/14 11:33:49;;;;;;;20.35;11.45;;;10.70;99.90;;;;;;5014499;28;20133;-72
2022/03/14 11:36:19;;;;;;;25.63;12.43;;;10.70;99.90;;;;;;5014879;28;20089;-72
2022/03/14 11:38:45;;;;;;;26.25;11.23;;;10.60;99.90;;;;;;5014842;28;20470;-72
2022/03/14 11:41:11;;;;;;;20.38;11.10;;;10.60;99.90;;;;;;4996560;28;20045;-73
2022/03/14 11:43:39;;;;;;;21.65;11.35;;;10.60;99.90;;;;;;4993498;28;20057;-72
2022/03/14 11:46:05;;;;;;;21.73;10.70;;;10.60;99.90;;;;;;5014620;28;20135;-74
2022/03/14 11:48:32;;;;;;;25.10;10.75;;;10.70;99.90;;;;;;4996621;28;20494;-73
2022/03/14 11:51:02;;;;;;;23.15;10.75;;;10.60;99.90;;;;;;5014196;28;20081;-73
2022/03/14 11:53:33;;;;;;;20.90;10.48;;;10.60;99.90;;;;;;5013962;28;20129;-72
2022/03/14 11:56:07;;;;;;;19.50;9.07;;;10.60;99.90;;;;;;5000032;28;20042;-73
2022/03/14 11:58:37;;;;;;;23.58;9.82;;;10.70;99.90;;;;;;5009680;28;20053;-74
2022/03/14 12:01:46;;;;;;;21.55;9.55;;;10.80;99.90;;;;;;5013909;28;20060;-73
2022/03/14 12:04:28;;;;;;;16.95;8.32;;;10.70;99.90;;;;;;4963677;28;20062;-73
2022/03/14 12:06:57;;;;;;;17.20;8.77;;;10.70;99.90;;;;;;5010137;28;20053;-72
2022/03/14 12:09:26;;;;;;;20.23;8.90;;;10.70;99.90;;;;;;4997324;28;20037;-72
2022/03/14 12:11:52;;;;;;;16.67;8.77;;;10.70;99.90;;;;;;5002267;28;20451;-72
2022/03/14 12:14:41;;;;;;;15.60;8.02;;;10.60;99.90;;;;;;5004984;28;20052;-71
2022/03/14 12:17:29;;;;;;;19.00;9.02;;;10.70;99.90;;;;;;5013352;28;20104;-73
2022/03/14 12:20:10;;;;;;;17.98;9.23;;;10.60;99.90;;;;;;5033883;28;20038;-72
2022/03/14 12:22:43;;;;;;;19.20;11.05;;;10.60;99.90;;;;;;5033488;28;20416;-73
2022/03/14 12:25:11;;;;;;;18.42;11.20;;;10.60;99.90;;;;;;5034059;28;20060;-73
2022/03/14 12:27:39;;;;;;;21.95;11.80;;;10.50;99.90;;;;;;5033981;28;20045;-73
2022/03/14 12:30:32;;;;;;;22.63;13.27;;;10.50;99.90;;;;;;5034536;28;20057;-73
2022/03/14 12:32:57;;;;;;;23.48;12.88;;;10.50;99.90;;;;;;5023196;28;20347;-74
2022/03/14 12:35:24;;;;;;;20.95;12.13;;;10.60;99.90;;;;;;5021311;28;20057;-74
2022/03/14 12:37:57;;;;;;;26.10;13.05;;;10.60;99.90;;;;;;5016454;28;20185;-71
2022/03/14 12:40:23;;;;;;;31.25;14.98;;;10.70;99.90;;;;;;5017789;28;20046;-74
2022/03/14 12:42:51;;;;;;;21.73;13.18;;;10.70;99.90;;;;;;5017782;28;20057;-73
2022/03/14 12:45:27;;;;;;;23.90;14.73;;;10.80;99.90;;;;;;5017601;28;20050;-74
2022/03/14 12:47:57;;;;;;;21.83;13.93;;;10.90;99.90;;;;;;5017971;28;20049;-73